createdAt,value
2022-08-19T00:00:57.130Z,94944.03
2022-08-19T00:01:57.144Z,94945.14
2022-08-19T00:02:57.124Z,94948.06
2022-08-19T00:03:57.131Z,94945.42
2022-08-19T00:04:57.128Z,94951.38
2022-08-19T00:05:57.105Z,94946.10
2022-08-19T00:06:57.082Z,94947.65
2022-08-19T00:07:57.072Z,94945.58
2022-08-19T00:08:57.062Z,94948.51
2022-08-19T00:09:57.086Z,94943.53
2022-08-19T00:10:57.057Z,94940.95
2022-08-19T00:11:57.044Z,94941.88
2022-08-19T00:12:57.075Z,94938.89
2022-08-19T00:13:57.026Z,94934.76
2022-08-19T00:14:57.019Z,94938.53
2022-08-19T00:15:57.025Z,94935.70
2022-08-19T00:16:56.986Z,94937.84
2022-08-19T00:17:56.986Z,94940.94
2022-08-19T00:18:56.976Z,94937.67
2022-08-19T00:19:56.969Z,94936.98
2022-08-19T00:20:56.958Z,94939.05
2022-08-19T00:21:56.985Z,94940.87
2022-08-19T00:22:56.948Z,94936.66
2022-08-19T00:23:56.928Z,94943.94
2022-08-19T00:24:56.942Z,94946.83
2022-08-19T00:25:56.925Z,94945.63
2022-08-19T00:26:56.924Z,94944.97
2022-08-19T00:27:56.910Z,94950.66
2022-08-19T00:28:56.905Z,94947.96
2022-08-19T00:29:56.895Z,94945.98
2022-08-19T00:30:56.872Z,94949.46
2022-08-19T00:31:56.876Z,94947.64
2022-08-19T00:32:56.866Z,94948.92
2022-08-19T00:33:56.877Z,94950.64
2022-08-19T00:34:56.834Z,94942.22
2022-08-19T00:35:56.838Z,94950.49
2022-08-19T00:36:56.837Z,94949.63
2022-08-19T00:37:56.805Z,94949.36
2022-08-19T00:38:56.818Z,94943.77
2022-08-19T00:39:57.039Z,94943.45
2022-08-19T00:40:56.801Z,94942.75
2022-08-19T00:41:56.783Z,94945.85
2022-08-19T00:42:56.781Z,94942.59
2022-08-19T00:43:56.802Z,94941.22
2022-08-19T00:44:56.769Z,94939.33
2022-08-19T00:45:56.780Z,94937.88
2022-08-19T00:46:58.492Z,94934.09
2022-08-19T00:47:56.722Z,94932.30
2022-08-19T00:48:56.709Z,94930.91
2022-08-19T00:49:56.703Z,94930.31
2022-08-19T00:50:56.724Z,94927.14
2022-08-19T00:51:56.707Z,94928.71
2022-08-19T00:52:56.671Z,94925.94
2022-08-19T00:53:56.677Z,94924.24
2022-08-19T00:54:56.659Z,94925.86
2022-08-19T00:55:56.656Z,94920.19
2022-08-19T00:56:56.655Z,94926.11
2022-08-19T00:57:56.643Z,94927.75
2022-08-19T00:58:56.637Z,94926.82
2022-08-19T01:00:02.353Z,94931.30
2022-08-19T01:00:56.618Z,94930.95
2022-08-19T01:01:56.630Z,94925.27
2022-08-19T01:02:56.586Z,94929.67
2022-08-19T01:03:58.585Z,94923.19
2022-08-19T01:04:56.567Z,94926.82
2022-08-19T01:05:56.570Z,94925.59
2022-08-19T01:06:56.556Z,94921.83
2022-08-19T01:07:56.551Z,94920.28
2022-08-19T01:08:56.542Z,94920.88
2022-08-19T01:09:56.541Z,94917.44
2022-08-19T01:10:56.519Z,94919.50
2022-08-19T01:11:56.506Z,94918.52
2022-08-19T01:12:56.499Z,94918.64
2022-08-19T01:13:56.490Z,94919.84
2022-08-19T01:14:56.494Z,94911.17
2022-08-19T01:15:56.494Z,94911.09
2022-08-19T01:16:56.462Z,94898.80
2022-08-19T01:17:56.452Z,94901.45
2022-08-19T01:18:56.452Z,94903.08
2022-08-19T01:19:56.433Z,94900.35
2022-08-19T01:20:56.503Z,94899.81
2022-08-19T01:21:56.447Z,94897.23
2022-08-19T01:22:56.413Z,94895.54
2022-08-19T01:23:56.411Z,94897.58
2022-08-19T01:24:56.395Z,94899.28
2022-08-19T01:25:56.399Z,94895.12
2022-08-19T01:26:56.397Z,94915.45
2022-08-19T01:27:56.399Z,94906.31
2022-08-19T01:28:59.653Z,94912.27
2022-08-19T01:29:56.352Z,94919.48
2022-08-19T01:30:56.359Z,94928.77
2022-08-19T01:31:56.341Z,94929.11
2022-08-19T01:32:56.327Z,94926.28
2022-08-19T01:33:56.328Z,94926.97
2022-08-19T01:34:56.323Z,94924.22
2022-08-19T01:35:56.298Z,94923.70
2022-08-19T01:36:56.289Z,94922.97
2022-08-19T01:37:56.293Z,94924.59
2022-08-19T01:38:56.273Z,94923.49
2022-08-19T01:39:56.356Z,94920.05
2022-08-19T01:40:56.261Z,94921.95
2022-08-19T01:41:56.253Z,94919.99
2022-08-19T01:42:56.242Z,94915.62
2022-08-19T01:44:17.061Z,94917.68
2022-08-19T01:44:56.223Z,94914.09
2022-08-19T01:45:56.247Z,94914.78
2022-08-19T01:46:56.217Z,94907.56
2022-08-19T01:48:01.487Z,94901.78
2022-08-19T01:48:56.185Z,94890.44
2022-08-19T01:49:56.189Z,94894.68
2022-08-19T01:50:56.166Z,94889.42
2022-08-19T01:51:56.346Z,94891.75
2022-08-19T01:53:02.376Z,94888.72
2022-08-19T01:53:56.136Z,94883.38
2022-08-19T01:54:56.137Z,94888.30
2022-08-19T01:55:56.131Z,94886.04
2022-08-19T01:56:56.118Z,94891.56
2022-08-19T01:57:56.131Z,94887.23
2022-08-19T01:58:56.112Z,94882.33
2022-08-19T01:59:56.102Z,94886.55
2022-08-19T02:00:56.102Z,94888.78
2022-08-19T02:01:56.072Z,94883.04
2022-08-19T02:02:56.060Z,94881.22
2022-08-19T02:03:56.845Z,94881.31
2022-08-19T02:04:56.063Z,94878.72
2022-08-19T02:05:56.045Z,94876.48
2022-08-19T02:06:56.032Z,94877.81
2022-08-19T02:07:56.020Z,94875.35
2022-08-19T02:08:57.182Z,94879.67
2022-08-19T02:09:56.036Z,94883.95
2022-08-19T02:10:56.007Z,94886.38
2022-08-19T02:11:55.998Z,94884.56
2022-08-19T02:12:55.996Z,94888.08
2022-08-19T02:13:55.964Z,94884.60
2022-08-19T02:14:55.969Z,94890.14
2022-08-19T02:15:55.980Z,94884.97
2022-08-19T02:16:55.959Z,94888.92
2022-08-19T02:17:55.926Z,94883.85
2022-08-19T02:18:55.940Z,94881.03
2022-08-19T02:19:55.921Z,94882.91
2022-08-19T02:20:55.921Z,94877.28
2022-08-19T02:21:55.922Z,94878.66
2022-08-19T02:22:55.893Z,94874.41
2022-08-19T02:23:55.880Z,94874.91
2022-08-19T02:24:55.871Z,94874.39
2022-08-19T02:25:55.878Z,94871.30
2022-08-19T02:26:55.868Z,94876.97
2022-08-19T02:27:55.871Z,94881.52
2022-08-19T02:28:55.854Z,94884.45
2022-08-19T02:29:55.821Z,94883.94
2022-08-19T02:30:55.822Z,94898.72
2022-08-19T02:31:55.810Z,94890.73
2022-08-19T02:32:56.049Z,94894.67
2022-08-19T02:33:56.505Z,94893.91
2022-08-19T02:34:55.783Z,94898.45
2022-08-19T02:35:55.774Z,94904.47
2022-08-19T02:36:55.779Z,94904.96
2022-08-19T02:37:55.754Z,94904.10
2022-08-19T02:38:55.758Z,94906.31
2022-08-19T02:39:55.834Z,94906.78
2022-08-19T02:40:55.748Z,94906.34
2022-08-19T02:41:55.730Z,94904.10
2022-08-19T02:42:55.717Z,94906.53
2022-08-19T02:44:29.967Z,94902.92
2022-08-19T02:44:55.712Z,94902.31
2022-08-19T02:45:55.717Z,94902.06
2022-08-19T02:46:55.694Z,94894.45
2022-08-19T02:47:55.668Z,94901.18
2022-08-19T02:48:55.660Z,94898.26
2022-08-19T02:49:55.663Z,94899.70
2022-08-19T02:50:55.672Z,94899.61
2022-08-19T02:51:55.652Z,94900.84
2022-08-19T02:52:55.631Z,94886.88
2022-08-19T02:53:55.621Z,94883.45
2022-08-19T02:54:55.612Z,94885.69
2022-08-19T02:55:55.607Z,94881.53
2022-08-19T02:56:55.593Z,94885.47
2022-08-19T02:57:55.607Z,94895.12
2022-08-19T02:58:55.582Z,94890.11
2022-08-19T02:59:55.564Z,94895.61
2022-08-19T03:00:55.645Z,94896.10
2022-08-19T03:01:55.558Z,94888.98
2022-08-19T03:02:55.558Z,94898.78
2022-08-19T03:03:55.559Z,94892.34
2022-08-19T03:04:55.546Z,94891.73
2022-08-19T03:05:57.004Z,94886.03
2022-08-19T03:06:58.462Z,94885.12
2022-08-19T03:07:55.511Z,94875.25
2022-08-19T03:08:55.501Z,94874.44
2022-08-19T03:09:55.498Z,94867.56
2022-08-19T03:10:55.477Z,94873.23
2022-08-19T03:11:55.472Z,94871.52
2022-08-19T03:12:55.459Z,94881.22
2022-08-19T03:13:55.465Z,94881.48
2022-08-19T03:14:55.441Z,94891.04
2022-08-19T03:15:55.451Z,94895.78
2022-08-19T03:16:55.421Z,94898.16
2022-08-19T03:17:55.413Z,94899.14
2022-08-19T03:18:55.422Z,94902.48
2022-08-19T03:19:55.392Z,94897.84
2022-08-19T03:20:55.418Z,94896.03
2022-08-19T03:21:55.406Z,94900.94
2022-08-19T03:22:55.372Z,94896.25
2022-08-19T03:23:55.353Z,94898.55
2022-08-19T03:24:55.354Z,94898.88
2022-08-19T03:25:58.298Z,94902.48
2022-08-19T03:26:55.349Z,94899.73
2022-08-19T03:27:55.339Z,94896.72
2022-08-19T03:28:58.739Z,94900.05
2022-08-19T03:29:55.310Z,94899.09
2022-08-19T03:30:55.310Z,94903.16
2022-08-19T03:31:55.291Z,94906.40
2022-08-19T03:32:57.146Z,94902.27
2022-08-19T03:33:55.286Z,94900.81
2022-08-19T03:34:55.271Z,94902.12
2022-08-19T03:35:55.249Z,94896.45
2022-08-19T03:36:55.253Z,94895.80
2022-08-19T03:37:55.243Z,94893.01
2022-08-19T03:38:56.371Z,94892.69
2022-08-19T03:39:55.289Z,94893.20
2022-08-19T03:40:55.211Z,94887.50
2022-08-19T03:42:32.707Z,94881.93
2022-08-19T03:42:55.209Z,94877.62
2022-08-19T03:43:55.182Z,94884.92
2022-08-19T03:44:55.173Z,94873.97
2022-08-19T03:45:55.200Z,94871.05
2022-08-19T03:46:55.164Z,94869.11
2022-08-19T03:47:55.143Z,94867.04
2022-08-19T03:48:55.157Z,94866.53
2022-08-19T03:49:55.133Z,94866.45
2022-08-19T03:50:55.139Z,94865.12
2022-08-19T03:51:55.140Z,94866.70
2022-08-19T03:52:55.119Z,94868.33
2022-08-19T03:53:55.110Z,94865.15
2022-08-19T03:54:55.100Z,94859.66
2022-08-19T03:55:55.080Z,94857.91
2022-08-19T03:56:55.077Z,94867.02
2022-08-19T03:57:58.988Z,94862.19
2022-08-19T03:58:55.074Z,94864.37
2022-08-19T03:59:55.053Z,94868.39
2022-08-19T04:00:55.111Z,94861.81
2022-08-19T04:01:55.034Z,94866.92
2022-08-19T04:02:58.425Z,94869.75
2022-08-19T04:03:55.014Z,94870.76
2022-08-19T04:04:55.004Z,94866.98
2022-08-19T04:05:54.990Z,94861.98
2022-08-19T04:06:54.984Z,94857.45
2022-08-19T04:07:54.983Z,94859.36
2022-08-19T04:08:54.976Z,94850.31
2022-08-19T04:09:54.972Z,94851.59
2022-08-19T04:10:54.957Z,94847.91
2022-08-19T04:11:54.940Z,94846.69
2022-08-19T04:12:54.923Z,94844.89
2022-08-19T04:13:54.914Z,94846.52
2022-08-19T04:14:54.910Z,94848.50
2022-08-19T04:15:54.929Z,94854.17
2022-08-19T04:16:54.899Z,94848.41
2022-08-19T04:17:54.892Z,94853.22
2022-08-19T04:18:54.875Z,94851.33
2022-08-19T04:19:54.871Z,94857.34
2022-08-19T04:20:54.870Z,94858.72
2022-08-19T04:21:54.881Z,94864.49
2022-08-19T04:22:54.952Z,94865.87
2022-08-19T04:23:54.818Z,94861.62
2022-08-19T04:24:54.821Z,94874.02
2022-08-19T04:25:54.800Z,94880.05
2022-08-19T04:26:54.813Z,94889.00
2022-08-19T04:27:54.800Z,94883.31
2022-08-19T04:28:54.787Z,94896.03
2022-08-19T04:29:54.770Z,94891.39
2022-08-19T04:30:54.762Z,94895.59
2022-08-19T04:31:54.749Z,94893.99
2022-08-19T04:32:54.993Z,94891.56
2022-08-19T04:33:54.756Z,94893.97
2022-08-19T04:35:01.317Z,94894.39
2022-08-19T04:35:54.726Z,94898.61
2022-08-19T04:36:54.703Z,94897.92
2022-08-19T04:37:54.705Z,94892.34
2022-08-19T04:38:54.677Z,94891.76
2022-08-19T04:39:54.709Z,94897.62
2022-08-19T04:40:54.665Z,94899.17
2022-08-19T04:41:54.669Z,94898.66
2022-08-19T04:42:55.072Z,94898.76
2022-08-19T04:43:54.650Z,94902.95
2022-08-19T04:44:54.638Z,94894.97
2022-08-19T04:45:56.457Z,94902.64
2022-08-19T04:46:54.611Z,94903.67
2022-08-19T04:47:58.910Z,94905.83
2022-08-19T04:48:54.589Z,94901.70
2022-08-19T04:49:54.593Z,94904.23
2022-08-19T04:50:54.570Z,94905.85
2022-08-19T04:51:54.660Z,94908.62
2022-08-19T04:52:54.994Z,94909.22
2022-08-19T04:53:54.557Z,94914.35
2022-08-19T04:54:54.532Z,94908.36
2022-08-19T04:55:54.535Z,94911.80
2022-08-19T04:56:54.525Z,94915.23
2022-08-19T04:57:54.523Z,94915.75
2022-08-19T04:58:54.493Z,94918.60
2022-08-19T04:59:54.484Z,94927.79
2022-08-19T05:00:54.549Z,94928.67
2022-08-19T05:01:54.478Z,94930.05
2022-08-19T05:02:54.627Z,94929.34
2022-08-19T05:03:54.479Z,94931.94
2022-08-19T05:04:54.435Z,94930.31
2022-08-19T05:05:54.434Z,94933.14
2022-08-19T05:06:59.424Z,94936.75
2022-08-19T05:07:54.417Z,94933.09
2022-08-19T05:08:54.397Z,94933.23
2022-08-19T05:09:57.814Z,94936.50
2022-08-19T05:10:54.391Z,94934.37
2022-08-19T05:11:54.379Z,94931.33
2022-08-19T05:12:54.525Z,94933.41
2022-08-19T05:13:55.323Z,94930.69
2022-08-19T05:14:54.360Z,94939.38
2022-08-19T05:15:54.350Z,94937.47
2022-08-19T05:17:23.782Z,94938.17
2022-08-19T05:17:54.335Z,94937.56
2022-08-19T05:18:54.311Z,94946.08
2022-08-19T05:19:54.302Z,94944.11
2022-08-19T05:20:54.303Z,94945.32
2022-08-19T05:21:54.325Z,94947.80
2022-08-19T05:22:54.509Z,94942.99
2022-08-19T05:23:54.264Z,94950.75
2022-08-19T05:25:11.745Z,94952.20
2022-08-19T05:25:54.259Z,94957.88
2022-08-19T05:26:54.235Z,94956.77
2022-08-19T05:27:54.266Z,94953.33
2022-08-19T05:28:54.857Z,94954.19
2022-08-19T05:29:54.230Z,94960.20
2022-08-19T05:30:54.197Z,94953.49
2022-08-19T05:31:54.209Z,94951.95
2022-08-19T05:32:54.407Z,94953.69
2022-08-19T05:33:54.208Z,94951.09
2022-08-19T05:34:54.171Z,94953.86
2022-08-19T05:35:54.171Z,94952.39
2022-08-19T05:36:54.139Z,94948.44
2022-08-19T05:37:56.964Z,94951.04
2022-08-19T05:38:54.119Z,94955.26
2022-08-19T05:39:54.198Z,94949.83
2022-08-19T05:40:54.101Z,94950.45
2022-08-19T05:41:54.103Z,94950.08
2022-08-19T05:42:55.309Z,94949.34
2022-08-19T05:43:54.102Z,94951.67
2022-08-19T05:44:54.086Z,94950.20
2022-08-19T05:45:54.072Z,94951.84
2022-08-19T05:46:54.066Z,94950.79
2022-08-19T05:47:54.053Z,94955.28
2022-08-19T05:48:54.047Z,94952.78
2022-08-19T05:49:54.034Z,94955.70
2022-08-19T05:50:54.017Z,94954.59
2022-08-19T05:51:54.034Z,94950.59
2022-08-19T05:52:54.003Z,94951.23
2022-08-19T05:53:53.995Z,94952.17
2022-08-19T05:54:53.983Z,94953.64
2022-08-19T05:55:53.977Z,94955.55
2022-08-19T05:56:53.969Z,94951.70
2022-08-19T05:57:53.981Z,94952.78
2022-08-19T05:58:53.962Z,94952.02
2022-08-19T05:59:58.661Z,94951.26
2022-08-19T06:00:53.942Z,94948.48
2022-08-19T06:01:53.920Z,94946.02
2022-08-19T06:02:54.065Z,94946.09
2022-08-19T06:03:53.911Z,94941.18
2022-08-19T06:04:53.904Z,94948.08
2022-08-19T06:05:53.894Z,94941.88
2022-08-19T06:06:53.884Z,94943.56
2022-08-19T06:07:53.989Z,94940.12
2022-08-19T06:08:53.866Z,94949.09
2022-08-19T06:09:59.945Z,94949.41
2022-08-19T06:10:53.841Z,94945.12
2022-08-19T06:11:55.939Z,94949.77
2022-08-19T06:12:53.824Z,94946.49
2022-08-19T06:13:57.255Z,94945.73
2022-08-19T06:15:00.796Z,94946.05
2022-08-19T06:15:53.816Z,94942.44
2022-08-19T06:16:53.799Z,94946.64
2022-08-19T06:17:53.925Z,94946.79
2022-08-19T06:18:53.780Z,94942.16
2022-08-19T06:19:53.777Z,94946.77
2022-08-19T06:20:55.949Z,94946.59
2022-08-19T06:21:53.747Z,94944.25
2022-08-19T06:22:53.742Z,94946.19
2022-08-19T06:23:53.727Z,94942.80
2022-08-19T06:24:53.709Z,94942.58
2022-08-19T06:25:53.710Z,94942.73
2022-08-19T06:26:55.788Z,94948.59
2022-08-19T06:28:14.073Z,94947.31
2022-08-19T06:28:53.678Z,94953.29
2022-08-19T06:29:53.671Z,94952.08
2022-08-19T06:30:53.674Z,94950.80
2022-08-19T06:31:53.666Z,94949.95
2022-08-19T06:32:53.656Z,94945.81
2022-08-19T06:33:53.665Z,94946.84
2022-08-19T06:34:53.637Z,94945.11
2022-08-19T06:35:53.635Z,94935.62
2022-08-19T06:36:53.634Z,94940.78
2022-08-19T06:37:53.647Z,94934.42
2022-08-19T06:38:53.589Z,94936.41
2022-08-19T06:39:53.655Z,94936.73
2022-08-19T06:40:53.569Z,94937.69
2022-08-19T06:41:56.834Z,94936.61
2022-08-19T06:42:54.985Z,94935.06
2022-08-19T06:43:54.131Z,94931.62
2022-08-19T06:44:53.739Z,94932.80
2022-08-19T06:45:53.590Z,94936.94
2022-08-19T06:46:54.750Z,94940.11
2022-08-19T06:47:53.521Z,94938.66
2022-08-19T06:48:53.490Z,94940.55
2022-08-19T06:49:53.502Z,94941.84
2022-08-19T06:50:53.469Z,94938.67
2022-08-19T06:51:53.470Z,94943.66
2022-08-19T06:52:53.695Z,94946.06
2022-08-19T06:53:53.473Z,94943.91
2022-08-19T06:54:56.626Z,94941.23
2022-08-19T06:55:53.432Z,94937.62
2022-08-19T06:56:53.412Z,94945.19
2022-08-19T06:57:53.587Z,94941.14
2022-08-19T06:58:53.416Z,94946.66
2022-08-19T06:59:53.407Z,94944.33
2022-08-19T07:00:53.417Z,94949.47
2022-08-19T07:01:53.394Z,94946.91
2022-08-19T07:02:59.085Z,94949.66
2022-08-19T07:03:53.365Z,94953.62
2022-08-19T07:04:53.361Z,94945.86
2022-08-19T07:05:53.344Z,94950.01
2022-08-19T07:06:55.066Z,94954.82
2022-08-19T07:07:53.339Z,94953.96
2022-08-19T07:08:53.314Z,94957.06
2022-08-19T07:09:58.996Z,94958.42
2022-08-19T07:10:53.311Z,94955.67
2022-08-19T07:11:53.287Z,94962.91
2022-08-19T07:12:53.406Z,94964.97
2022-08-19T07:13:54.169Z,94968.91
2022-08-19T07:14:53.259Z,94963.75
2022-08-19T07:15:53.269Z,94964.12
2022-08-19T07:16:53.239Z,94964.96
2022-08-19T07:17:53.241Z,94965.48
2022-08-19T07:18:53.235Z,94968.94
2022-08-19T07:19:54.444Z,94964.45
2022-08-19T07:20:53.215Z,94966.41
2022-08-19T07:21:53.231Z,94964.45
2022-08-19T07:22:53.408Z,94964.91
2022-08-19T07:23:53.193Z,94971.11
2022-08-19T07:24:53.172Z,94964.72
2022-08-19T07:25:53.484Z,94971.77
2022-08-19T07:26:53.168Z,94969.39
2022-08-19T07:27:54.281Z,94972.31
2022-08-19T07:28:53.168Z,94969.36
2022-08-19T07:29:56.317Z,94965.06
2022-08-19T07:30:53.134Z,94962.56
2022-08-19T07:31:53.116Z,94968.84
2022-08-19T07:32:53.162Z,94961.77
2022-08-19T07:33:53.427Z,94969.88
2022-08-19T07:34:53.085Z,94967.11
2022-08-19T07:35:53.103Z,94973.34
2022-08-19T07:36:53.074Z,94975.66
2022-08-19T07:37:53.239Z,94977.00
2022-08-19T07:38:53.053Z,94980.61
2022-08-19T07:39:53.113Z,94977.96
2022-08-19T07:40:53.029Z,94980.62
2022-08-19T07:41:53.026Z,94985.95
2022-08-19T07:42:53.023Z,94982.07
2022-08-19T07:43:53.006Z,94984.98
2022-08-19T07:44:52.995Z,94986.88
2022-08-19T07:45:53.002Z,94993.69
2022-08-19T07:46:53.344Z,94988.16
2022-08-19T07:47:52.972Z,94994.28
2022-08-19T07:48:52.967Z,94991.70
2022-08-19T07:49:52.967Z,94989.12
2022-08-19T07:50:52.948Z,94993.77
2022-08-19T07:51:52.944Z,94996.00
2022-08-19T07:52:52.931Z,94989.47
2022-08-19T07:53:52.930Z,94994.87
2022-08-19T07:54:52.906Z,94996.14
2022-08-19T07:55:52.896Z,94994.80
2022-08-19T07:56:52.898Z,94994.34
2022-08-19T07:57:52.891Z,94995.82
2022-08-19T07:58:52.902Z,94994.08
2022-08-19T07:59:52.867Z,94997.69
2022-08-19T08:00:52.861Z,94997.52
2022-08-19T08:01:52.870Z,94997.56
2022-08-19T08:02:55.264Z,95005.33
2022-08-19T08:03:52.830Z,94998.38
2022-08-19T08:04:52.810Z,94997.00
2022-08-19T08:05:52.812Z,95005.52
2022-08-19T08:06:52.803Z,95002.41
2022-08-19T08:07:52.792Z,94999.58
2022-08-19T08:08:52.884Z,94999.80
2022-08-19T08:09:52.792Z,95011.27
2022-08-19T08:10:53.131Z,95006.02
2022-08-19T08:11:52.767Z,95004.45
2022-08-19T08:13:09.491Z,95011.00
2022-08-19T08:14:01.234Z,95015.05
2022-08-19T08:14:56.077Z,95015.12
2022-08-19T08:15:52.903Z,95015.12
2022-08-19T08:16:52.718Z,95021.41
2022-08-19T08:17:52.726Z,95019.70
2022-08-19T08:18:53.223Z,95016.80
2022-08-19T08:19:52.697Z,95021.44
2022-08-19T08:20:52.710Z,95024.88
2022-08-19T08:21:52.701Z,95023.67
2022-08-19T08:22:52.804Z,95021.59
2022-08-19T08:23:55.670Z,95022.45
2022-08-19T08:24:52.630Z,95026.50
2022-08-19T08:25:52.644Z,95029.34
2022-08-19T08:26:57.416Z,95027.53
2022-08-19T08:27:53.733Z,95030.72
2022-08-19T08:28:52.605Z,95031.00
2022-08-19T08:29:52.605Z,95028.94
2022-08-19T08:30:52.578Z,95028.94
2022-08-19T08:31:59.770Z,95029.62
2022-08-19T08:32:52.562Z,95031.58
2022-08-19T08:33:52.572Z,95027.45
2022-08-19T08:34:52.555Z,95025.91
2022-08-19T08:35:52.533Z,95031.69
2022-08-19T08:36:52.525Z,95033.82
2022-08-19T08:37:52.805Z,95038.56
2022-08-19T08:39:52.605Z,95039.31
2022-08-19T08:40:52.498Z,95038.04
2022-08-19T08:41:52.475Z,95038.73
2022-08-19T08:42:52.558Z,95041.65
2022-08-19T08:43:52.455Z,95042.06
2022-08-19T08:45:53.812Z,95042.16
2022-08-19T08:46:52.713Z,95043.15
2022-08-19T08:47:52.438Z,95040.79
2022-08-19T08:48:52.573Z,95042.80
2022-08-19T08:49:52.439Z,95044.16
2022-08-19T08:50:52.402Z,95041.50
2022-08-19T08:52:00.174Z,95039.86
2022-08-19T08:52:52.588Z,95037.01
2022-08-19T08:53:56.007Z,95040.09
2022-08-19T08:54:55.174Z,95040.34
2022-08-19T08:55:52.355Z,95044.64
2022-08-19T08:56:52.341Z,95043.71
2022-08-19T08:57:52.345Z,95047.22
2022-08-19T08:58:54.561Z,95054.62
2022-08-19T08:59:52.315Z,95054.10
2022-08-19T09:00:52.303Z,95051.28
2022-08-19T09:01:52.353Z,95057.37
2022-08-19T09:02:52.297Z,95056.69
2022-08-19T09:03:52.294Z,95057.30
2022-08-19T09:04:52.265Z,95054.80
2022-08-19T09:05:52.268Z,95061.32
2022-08-19T09:06:52.254Z,95060.22
2022-08-19T09:07:52.248Z,95059.61
2022-08-19T09:08:52.237Z,95062.80
2022-08-19T09:09:52.227Z,95064.56
2022-08-19T09:10:55.321Z,95064.64
2022-08-19T09:11:52.197Z,95064.08
2022-08-19T09:12:52.211Z,95063.70
2022-08-19T09:13:52.178Z,95061.67
2022-08-19T09:14:52.506Z,95059.95
2022-08-19T09:15:52.180Z,95066.73
2022-08-19T09:16:52.179Z,95063.73
2022-08-19T09:17:52.184Z,95064.17
2022-08-19T09:18:52.154Z,95063.12
2022-08-19T09:19:52.132Z,95063.05
2022-08-19T09:20:52.134Z,95067.86
2022-08-19T09:21:52.145Z,95065.62
2022-08-19T09:22:52.115Z,95065.67
2022-08-19T09:23:52.151Z,95073.09
2022-08-19T09:24:52.091Z,95074.49
2022-08-19T09:25:52.072Z,95073.53
2022-08-19T09:26:52.845Z,95068.82
2022-08-19T09:27:52.073Z,95073.12
2022-08-19T09:28:52.065Z,95069.41
2022-08-19T09:29:52.058Z,95070.78
2022-08-19T09:30:52.948Z,95072.59
2022-08-19T09:31:52.015Z,95070.61
2022-08-19T09:32:52.803Z,95068.89
2022-08-19T09:33:52.298Z,95070.20
2022-08-19T09:34:52.070Z,95071.81
2022-08-19T09:35:53.574Z,95069.06
2022-08-19T09:36:51.977Z,95070.71
2022-08-19T09:37:57.293Z,95065.80
2022-08-19T09:38:51.979Z,95073.88
2022-08-19T09:39:51.985Z,95074.02
2022-08-19T09:40:51.940Z,95077.84
2022-08-19T09:41:51.942Z,95076.09
2022-08-19T09:42:52.737Z,95076.26
2022-08-19T09:43:51.923Z,95079.70
2022-08-19T09:44:51.911Z,95075.38
2022-08-19T09:45:51.911Z,95076.41
2022-08-19T09:46:51.913Z,95076.99
2022-08-19T09:47:52.131Z,95077.07
2022-08-19T09:48:51.872Z,95077.07
2022-08-19T09:49:51.876Z,95075.08
2022-08-19T09:50:52.268Z,95081.34
2022-08-19T09:51:51.852Z,95077.84
2022-08-19T09:52:55.027Z,95087.36
2022-08-19T09:53:51.838Z,95084.78
2022-08-19T09:54:52.131Z,95084.02
2022-08-19T09:55:51.813Z,95080.58
2022-08-19T09:56:51.810Z,95082.20
2022-08-19T09:57:51.821Z,95085.22
2022-08-19T09:58:51.800Z,95082.48
2022-08-19T09:59:51.777Z,95093.05
2022-08-19T10:00:51.857Z,95087.28
2022-08-19T10:01:51.771Z,95081.19
2022-08-19T10:02:51.747Z,95080.92
2022-08-19T10:03:51.748Z,95082.84
2022-08-19T10:04:51.751Z,95082.89
2022-08-19T10:05:54.620Z,95074.22
2022-08-19T10:06:53.484Z,95085.56
2022-08-19T10:07:51.729Z,95088.41
2022-08-19T10:08:51.700Z,95088.05
2022-08-19T10:09:51.691Z,95088.05
2022-08-19T10:10:51.689Z,95080.98
2022-08-19T10:11:54.961Z,95092.94
2022-08-19T10:12:51.662Z,95088.95
2022-08-19T10:13:51.665Z,95088.30
2022-08-19T10:14:51.642Z,95087.95
2022-08-19T10:15:51.668Z,95087.36
2022-08-19T10:16:51.631Z,95085.81
2022-08-19T10:17:54.975Z,95085.95
2022-08-19T10:18:51.617Z,95087.33
2022-08-19T10:19:55.540Z,95086.75
2022-08-19T10:20:52.699Z,95085.25
2022-08-19T10:21:51.604Z,95084.41
2022-08-19T10:22:51.868Z,95083.97
2022-08-19T10:23:51.569Z,95083.84
2022-08-19T10:24:51.569Z,95089.73
2022-08-19T10:25:51.539Z,95085.27
2022-08-19T10:26:55.924Z,95089.03
2022-08-19T10:27:51.687Z,95086.97
2022-08-19T10:28:51.531Z,95084.48
2022-08-19T10:29:51.499Z,95087.84
2022-08-19T10:30:51.512Z,95087.53
2022-08-19T10:32:01.215Z,95092.69
2022-08-19T10:32:51.479Z,95093.13
2022-08-19T10:33:53.989Z,95092.86
2022-08-19T10:34:51.475Z,95085.20
2022-08-19T10:35:56.805Z,95086.16
2022-08-19T10:36:54.363Z,95088.73
2022-08-19T10:37:56.938Z,95092.95
2022-08-19T10:38:56.544Z,95098.12
2022-08-19T10:39:51.515Z,95091.16
2022-08-19T10:40:51.416Z,95094.53
2022-08-19T10:41:51.397Z,95092.47
2022-08-19T10:42:51.400Z,95095.24
2022-08-19T10:43:51.372Z,95096.86
2022-08-19T10:44:51.829Z,95095.98
2022-08-19T10:45:52.595Z,95098.23
2022-08-19T10:46:51.358Z,95100.82
2022-08-19T10:47:51.335Z,95103.77
2022-08-19T10:48:51.339Z,95108.58
2022-08-19T10:49:51.316Z,95102.22
2022-08-19T10:50:51.307Z,95104.16
2022-08-19T10:51:51.320Z,95103.40
2022-08-19T10:52:51.301Z,95108.04
2022-08-19T10:53:51.292Z,95107.84
2022-08-19T10:54:51.268Z,95106.54
2022-08-19T10:55:51.272Z,95109.53
2022-08-19T10:56:51.270Z,95108.95
2022-08-19T10:58:02.353Z,95110.73
2022-08-19T10:58:51.241Z,95112.66
2022-08-19T10:59:51.220Z,95107.57
2022-08-19T11:00:51.344Z,95111.88
2022-08-19T11:01:51.223Z,95111.88
2022-08-19T11:02:51.202Z,95110.73
2022-08-19T11:03:51.216Z,95108.36
2022-08-19T11:04:51.183Z,95112.55
2022-08-19T11:05:51.176Z,95115.91
2022-08-19T11:06:51.179Z,95113.66
2022-08-19T11:07:51.157Z,95117.27
2022-08-19T11:08:51.158Z,95116.83
2022-08-19T11:09:51.154Z,95111.75
2022-08-19T11:10:51.138Z,95116.39
2022-08-19T11:11:51.114Z,95115.28
2022-08-19T11:12:51.119Z,95119.28
2022-08-19T11:13:51.095Z,95120.39
2022-08-19T11:14:51.099Z,95114.72
2022-08-19T11:15:51.107Z,95116.44
2022-08-19T11:16:51.081Z,95117.12
2022-08-19T11:17:51.057Z,95114.45
2022-08-19T11:18:51.055Z,95119.90
2022-08-19T11:19:51.038Z,95118.72
2022-08-19T11:20:51.049Z,95123.12
2022-08-19T11:21:51.053Z,95122.84
2022-08-19T11:22:51.034Z,95125.62
2022-08-19T11:23:51.014Z,95126.53
2022-08-19T11:24:50.999Z,95127.39
2022-08-19T11:25:50.982Z,95123.09
2022-08-19T11:26:50.995Z,95129.05
2022-08-19T11:27:50.982Z,95126.80
2022-08-19T11:28:50.974Z,95126.88
2022-08-19T11:29:50.956Z,95123.58
2022-08-19T11:30:50.956Z,95122.86
2022-08-19T11:31:50.941Z,95128.19
2022-08-19T11:32:50.937Z,95125.41
2022-08-19T11:33:50.937Z,95125.14
2022-08-19T11:34:50.906Z,95119.98
2022-08-19T11:35:50.899Z,95115.69
2022-08-19T11:36:50.899Z,95119.49
2022-08-19T11:37:50.890Z,95122.94
2022-08-19T11:38:50.881Z,95125.44
2022-08-19T11:39:53.325Z,95130.08
2022-08-19T11:40:50.867Z,95128.23
2022-08-19T11:41:50.850Z,95116.45
2022-08-19T11:42:50.839Z,95125.21
2022-08-19T11:43:50.818Z,95115.14
2022-08-19T11:44:50.818Z,95118.75
2022-08-19T11:45:50.823Z,95122.88
2022-08-19T11:46:50.813Z,95124.84